createdAt,value
2018-11-26T00:01:04.007Z,32.10
2018-11-26T00:03:44.799Z,32.78
2018-11-26T00:06:24.088Z,32.10
2018-11-26T00:09:02.698Z,32.78
2018-11-26T00:11:38.397Z,32.13
2018-11-26T00:14:19.237Z,32.67
2018-11-26T00:16:59.002Z,34.27
2018-11-26T00:19:40.468Z,32.83
2018-11-26T00:22:20.763Z,31.80
2018-11-26T00:25:00.625Z,31.23
2018-11-26T00:27:41.642Z,32.67
2018-11-26T00:30:21.640Z,31.20
2018-11-26T00:33:00.324Z,33.88
2018-11-26T00:35:37.669Z,32.28
2018-11-26T00:38:16.859Z,32.58
2018-11-26T00:40:53.400Z,34.15
2018-11-26T00:43:31.639Z,32.67
2018-11-26T00:46:11.554Z,30.65
2018-11-26T00:48:49.845Z,32.20
2018-11-26T00:51:28.814Z,34.75
2018-11-26T00:54:08.808Z,29.72
2018-11-26T00:56:47.536Z,30.80
2018-11-26T00:59:25.637Z,30.57
2018-11-26T01:02:05.831Z,30.27
2018-11-26T01:04:43.992Z,29.30
2018-11-26T01:07:24.784Z,29.85
2018-11-26T01:10:03.703Z,26.33
2018-11-26T01:12:39.741Z,30.37
2018-11-26T01:15:18.031Z,27.27
2018-11-26T01:17:56.801Z,29.32
2018-11-26T01:20:37.191Z,27.85
2018-11-26T01:23:16.559Z,26.25
2018-11-26T01:25:56.173Z,26.93
2018-11-26T01:28:34.215Z,27.52
2018-11-26T01:31:13.704Z,30.57
2018-11-26T01:33:51.640Z,29.27
2018-11-26T01:36:31.639Z,27.58
2018-11-26T01:39:09.378Z,30.00
2018-11-26T01:41:49.920Z,27.75
2018-11-26T01:44:28.138Z,29.45
2018-11-26T01:47:08.305Z,28.73
2018-11-26T01:49:48.018Z,29.20
2018-11-26T01:52:25.898Z,29.18
2018-11-26T01:55:11.153Z,30.23
2018-11-26T01:57:51.468Z,28.92
2018-11-26T02:00:34.034Z,30.40
2018-11-26T02:03:13.304Z,29.80
2018-11-26T02:05:53.656Z,28.70
2018-11-26T02:08:31.640Z,29.32
2018-11-26T02:11:10.695Z,31.02
2018-11-26T02:13:49.715Z,30.70
2018-11-26T02:16:28.670Z,30.82
2018-11-26T02:19:09.270Z,29.80
2018-11-26T02:21:49.612Z,29.32
2018-11-26T02:24:27.180Z,27.85
2018-11-26T02:27:08.021Z,27.60
2018-11-26T02:29:48.136Z,30.40
2018-11-26T02:32:28.052Z,29.50
2018-11-26T02:35:07.516Z,29.72
2018-11-26T02:37:46.561Z,28.85
2018-11-26T02:40:31.331Z,29.90
2018-11-26T02:43:12.993Z,30.68
2018-11-26T02:45:47.314Z,30.08
2018-11-26T02:48:26.648Z,28.95
2018-11-26T02:51:06.365Z,30.20
2018-11-26T02:53:44.654Z,29.25
2018-11-26T02:56:25.494Z,31.48
2018-11-26T02:59:03.564Z,31.30
2018-11-26T03:01:43.028Z,30.60
2018-11-26T03:04:21.639Z,32.35
2018-11-26T03:07:00.911Z,32.20
2018-11-26T03:09:39.899Z,29.55
2018-11-26T03:12:18.216Z,32.38
2018-11-26T03:14:57.183Z,30.35
2018-11-26T03:17:37.279Z,33.38
2018-11-26T03:20:17.167Z,29.23
2018-11-26T03:22:56.683Z,32.70
2018-11-26T03:25:36.175Z,30.88
2018-11-26T03:28:17.864Z,31.48
2018-11-26T03:30:57.134Z,29.40
2018-11-26T03:33:38.005Z,29.92
2018-11-26T03:36:17.261Z,31.40
2018-11-26T03:38:58.279Z,32.03
2018-11-26T03:41:38.048Z,31.23
2018-11-26T03:44:18.335Z,31.90
2018-11-26T03:46:57.975Z,31.25
2018-11-26T03:49:37.321Z,30.32
2018-11-26T03:52:16.336Z,30.37
2018-11-26T03:54:56.277Z,31.05
2018-11-26T03:57:35.518Z,31.37
2018-11-26T04:00:16.069Z,31.07
2018-11-26T04:02:55.298Z,29.85
2018-11-26T04:05:33.862Z,29.27
2018-11-26T04:08:12.656Z,30.25
2018-11-26T04:10:51.640Z,30.15
2018-11-26T04:13:30.036Z,29.85
2018-11-26T04:16:09.559Z,30.27
2018-11-26T04:18:49.795Z,29.65
2018-11-26T04:21:30.734Z,29.77
2018-11-26T04:24:09.054Z,30.90
2018-11-26T04:26:48.222Z,29.52
2018-11-26T04:29:27.387Z,28.27
2018-11-26T04:32:00.003Z,30.17
2018-11-26T04:34:28.075Z,32.60
2018-11-26T04:37:02.617Z,29.50
2018-11-26T04:39:32.888Z,29.82
2018-11-26T04:42:12.887Z,30.60
2018-11-26T04:44:41.148Z,30.02
2018-11-26T04:47:18.466Z,30.02
2018-11-26T04:49:50.870Z,33.15
2018-11-26T04:52:18.818Z,31.70
2018-11-26T04:54:57.426Z,31.15
2018-11-26T04:57:26.949Z,31.93
2018-11-26T05:00:02.198Z,30.65
2018-11-26T05:02:34.499Z,30.57
2018-11-26T05:05:06.608Z,30.57
2018-11-26T05:07:43.754Z,32.00
2018-11-26T05:10:16.085Z,32.42
2018-11-26T05:12:45.748Z,33.63
2018-11-26T05:15:14.773Z,31.33
2018-11-26T05:17:44.970Z,31.45
2018-11-26T05:20:15.732Z,29.67
2018-11-26T05:22:50.335Z,30.57
2018-11-26T05:25:23.196Z,30.55
2018-11-26T05:27:53.667Z,29.80
2018-11-26T05:30:23.993Z,30.77
2018-11-26T05:32:52.039Z,30.90
2018-11-26T05:35:21.323Z,31.57
2018-11-26T05:37:52.133Z,29.75
2018-11-26T05:40:27.598Z,29.05
2018-11-26T05:43:01.658Z,29.52
2018-11-26T05:45:34.742Z,30.05
2018-11-26T05:48:08.388Z,28.98
2018-11-26T05:50:41.523Z,30.05
2018-11-26T05:53:16.104Z,29.50
2018-11-26T05:55:50.101Z,29.07
2018-11-26T05:58:25.308Z,30.95
2018-11-26T06:00:59.953Z,34.23
2018-11-26T06:03:34.019Z,30.20
2018-11-26T06:06:08.097Z,28.65
2018-11-26T06:08:42.853Z,30.45
2018-11-26T06:11:17.568Z,29.60
2018-11-26T06:13:52.936Z,29.63
2018-11-26T06:16:28.396Z,28.27
2018-11-26T06:19:01.639Z,29.90
2018-11-26T06:21:35.850Z,30.75
2018-11-26T06:24:06.168Z,30.08
2018-11-26T06:26:35.670Z,30.30
2018-11-26T06:29:08.195Z,30.55
2018-11-26T06:31:41.240Z,32.58
2018-11-26T06:34:11.142Z,30.37
2018-11-26T06:36:39.986Z,29.65
2018-11-26T06:39:11.576Z,29.32
2018-11-26T06:41:45.843Z,31.37
2018-11-26T06:44:15.511Z,29.50
2018-11-26T06:46:49.442Z,29.95
2018-11-26T06:49:21.452Z,30.45
2018-11-26T06:51:49.946Z,27.50
2018-11-26T06:54:20.303Z,29.67
2018-11-26T06:56:50.698Z,29.90
2018-11-26T06:59:25.739Z,31.00
2018-11-26T07:02:00.259Z,29.50
2018-11-26T07:04:29.774Z,33.67
2018-11-26T07:06:58.430Z,29.72
2018-11-26T07:09:33.683Z,30.43
2018-11-26T07:12:08.546Z,30.85
2018-11-26T07:14:42.610Z,30.75
2018-11-26T07:17:16.902Z,30.08
2018-11-26T07:19:51.640Z,29.70
2018-11-26T07:22:30.088Z,30.20
2018-11-26T07:25:10.049Z,31.37
2018-11-26T07:27:51.468Z,31.75
2018-11-26T07:30:30.283Z,31.48
2018-11-26T07:33:10.548Z,29.07
2018-11-26T07:35:48.766Z,29.30
2018-11-26T07:38:28.308Z,28.45
2018-11-26T07:41:07.658Z,29.98
2018-11-26T07:43:47.216Z,29.23
2018-11-26T07:46:26.857Z,29.32
2018-11-26T07:49:05.296Z,27.98
2018-11-26T07:51:43.565Z,27.87
2018-11-26T07:54:21.639Z,26.95
2018-11-26T07:57:01.639Z,27.77
2018-11-26T07:59:41.638Z,26.35
2018-11-26T08:02:21.076Z,27.40
2018-11-26T08:05:01.639Z,26.75
2018-11-26T08:07:41.639Z,26.35
2018-11-26T08:10:23.003Z,26.62
2018-11-26T08:13:04.566Z,25.05
2018-11-26T08:15:43.285Z,24.52
2018-11-26T08:18:21.639Z,26.90
2018-11-26T08:21:01.641Z,26.85
2018-11-26T08:23:41.460Z,26.68
2018-11-26T08:26:20.901Z,25.88
2018-11-26T08:28:59.713Z,25.55
2018-11-26T08:31:40.257Z,26.27
2018-11-26T08:34:20.327Z,24.37
2018-11-26T08:37:37.912Z,24.57
2018-11-26T08:40:18.426Z,24.80
2018-11-26T08:43:00.869Z,24.20
2018-11-26T08:45:46.713Z,23.65
2018-11-26T08:48:35.156Z,24.30
2018-11-26T08:51:14.477Z,23.02
2018-11-26T08:53:53.432Z,21.48
2018-11-26T08:56:31.643Z,24.00
2018-11-26T08:59:11.640Z,24.40
2018-11-26T09:01:59.732Z,21.73
2018-11-26T09:04:44.022Z,23.87
2018-11-26T09:07:25.920Z,26.50
2018-11-26T09:10:06.181Z,24.92
2018-11-26T09:12:46.222Z,20.25
2018-11-26T09:15:26.590Z,23.40
2018-11-26T09:18:05.654Z,21.68
2018-11-26T09:20:44.009Z,24.20
2018-11-26T09:23:25.289Z,24.87
2018-11-26T09:26:02.803Z,21.27
2018-11-26T09:28:44.095Z,22.42
2018-11-26T09:31:25.010Z,22.58
2018-11-26T09:34:05.305Z,23.55
2018-11-26T09:36:43.701Z,21.25
2018-11-26T09:39:24.658Z,23.73
2018-11-26T09:42:04.201Z,27.95
2018-11-26T09:44:44.018Z,20.20
2018-11-26T09:47:22.809Z,19.50
2018-11-26T09:50:02.673Z,20.57
2018-11-26T09:52:36.448Z,18.35
2018-11-26T09:55:07.955Z,20.52
2018-11-26T09:57:41.272Z,20.60
2018-11-26T10:00:15.944Z,28.20
2018-11-26T10:02:50.718Z,19.82
2018-11-26T10:05:25.986Z,19.37
2018-11-26T10:07:58.593Z,24.35
2018-11-26T10:10:31.333Z,17.30
2018-11-26T10:13:04.597Z,20.52
2018-11-26T10:15:37.441Z,18.55
2018-11-26T10:18:11.637Z,18.85
2018-11-26T10:20:44.467Z,17.42
2018-11-26T10:23:18.722Z,18.15
2018-11-26T10:25:52.184Z,17.10
2018-11-26T10:28:25.391Z,26.68
2018-11-26T10:30:54.474Z,19.12
2018-11-26T10:33:23.593Z,22.70
2018-11-26T10:35:56.239Z,20.12
2018-11-26T10:38:30.692Z,20.08
2018-11-26T10:41:03.658Z,19.20
2018-11-26T10:43:35.500Z,18.92
2018-11-26T10:46:07.983Z,20.82
2018-11-26T10:48:47.959Z,22.22
2018-11-26T10:51:21.641Z,21.12
2018-11-26T10:54:00.017Z,19.27
2018-11-26T10:56:37.506Z,22.85
2018-11-26T10:59:16.227Z,30.52
2018-11-26T11:02:55.961Z,24.37
2018-11-26T11:05:35.901Z,21.30
2018-11-26T11:08:16.677Z,21.52
2018-11-26T11:10:58.339Z,23.90
2018-11-26T11:13:36.979Z,26.68
2018-11-26T11:16:16.893Z,19.50
2018-11-26T11:18:58.286Z,30.72
2018-11-26T11:21:38.249Z,22.30
2018-11-26T11:24:18.744Z,27.30
2018-11-26T11:26:57.504Z,37.40
2018-11-26T11:29:36.803Z,40.12
2018-11-26T11:32:15.789Z,21.05
2018-11-26T11:34:58.434Z,30.23
2018-11-26T11:37:37.278Z,20.10
2018-11-26T11:40:17.315Z,23.42
2018-11-26T11:42:58.233Z,34.73
2018-11-26T11:45:35.514Z,30.95
2018-11-26T11:48:15.662Z,23.30
2018-11-26T11:50:54.580Z,26.65
2018-11-26T11:53:34.078Z,23.65
2018-11-26T11:56:16.665Z,22.75
2018-11-26T11:58:54.075Z,30.30
2018-11-26T12:01:32.843Z,26.45
2018-11-26T12:04:12.810Z,26.60
2018-11-26T12:06:51.638Z,25.52
2018-11-26T12:09:31.639Z,25.25
2018-11-26T12:12:11.137Z,23.80
2018-11-26T12:14:51.640Z,25.52
2018-11-26T12:17:31.092Z,20.00
2018-11-26T12:20:08.809Z,41.40
2018-11-26T12:22:52.977Z,24.15
2018-11-26T12:25:30.946Z,37.00
2018-11-26T12:28:11.638Z,33.25
2018-11-26T12:30:51.535Z,39.73
2018-11-26T12:33:31.442Z,31.70
2018-11-26T12:36:10.075Z,58.05
2018-11-26T12:38:50.023Z,49.67
2018-11-26T12:41:30.243Z,25.17
2018-11-26T12:44:02.456Z,27.62
2018-11-26T12:46:33.758Z,34.60
2018-11-26T12:49:11.515Z,22.67
2018-11-26T12:51:50.979Z,31.07
2018-11-26T12:54:31.273Z,30.02
2018-11-26T12:57:10.938Z,30.45
2018-11-26T12:59:51.066Z,29.70
2018-11-26T13:02:31.197Z,24.55
2018-11-26T13:05:11.476Z,27.48
2018-11-26T13:07:50.032Z,39.92
2018-11-26T13:10:30.344Z,24.80
2018-11-26T13:13:11.639Z,23.87
2018-11-26T13:15:50.504Z,29.05
2018-11-26T13:18:30.796Z,25.72
2018-11-26T13:21:10.510Z,26.55
2018-11-26T13:23:49.727Z,24.25
2018-11-26T13:26:28.317Z,23.10
2018-11-26T13:29:08.283Z,20.45
2018-11-26T13:31:48.852Z,25.52
2018-11-26T13:34:28.147Z,22.65
2018-11-26T13:37:08.207Z,30.00
2018-11-26T13:39:48.477Z,28.47
2018-11-26T13:42:27.965Z,25.45
2018-11-26T13:45:08.481Z,26.07
2018-11-26T13:47:47.276Z,28.77
2018-11-26T13:50:28.066Z,25.43
2018-11-26T13:53:06.783Z,28.75
2018-11-26T13:55:46.455Z,26.77
2018-11-26T13:58:24.888Z,27.55
2018-11-26T14:01:04.572Z,33.35
2018-11-26T14:03:42.471Z,28.80
2018-11-26T14:06:21.640Z,24.90
2018-11-26T14:09:03.178Z,24.75
2018-11-26T14:11:44.994Z,30.08
2018-11-26T14:14:24.014Z,25.80
2018-11-26T14:17:05.202Z,29.12
2018-11-26T14:19:43.021Z,23.40
2018-11-26T14:22:24.061Z,27.77
2018-11-26T14:24:59.604Z,26.17
2018-11-26T14:27:40.666Z,25.02
2018-11-26T14:30:22.526Z,33.35
2018-11-26T14:33:02.750Z,24.95
2018-11-26T14:35:41.639Z,23.75
2018-11-26T14:38:20.360Z,24.98
2018-11-26T14:41:00.723Z,24.18
2018-11-26T14:43:40.688Z,27.70
2018-11-26T14:46:19.403Z,22.05
2018-11-26T14:48:58.925Z,23.27
2018-11-26T14:51:40.689Z,22.32
2018-11-26T14:54:21.639Z,21.17
2018-11-26T14:57:00.673Z,23.75
2018-11-26T14:59:41.643Z,25.52
2018-11-26T15:02:21.055Z,28.15
2018-11-26T15:05:01.643Z,24.23
2018-11-26T15:07:41.640Z,28.52
2018-11-26T15:10:31.624Z,25.50
2018-11-26T15:13:08.220Z,25.27
2018-11-26T15:15:48.015Z,22.80
2018-11-26T15:18:26.164Z,24.60
2018-11-26T15:21:08.361Z,24.82
2018-11-26T15:23:46.833Z,27.07
2018-11-26T15:26:28.224Z,26.10
2018-11-26T15:29:06.389Z,26.00
2018-11-26T15:31:50.245Z,25.00
2018-11-26T15:34:17.061Z,26.45
2018-11-26T15:36:58.865Z,23.87
2018-11-26T15:39:31.138Z,24.95
2018-11-26T15:41:59.281Z,26.87
2018-11-26T15:44:28.162Z,25.92
2018-11-26T15:46:56.153Z,24.75
2018-11-26T15:49:35.147Z,23.27
2018-11-26T15:52:14.215Z,25.68
2018-11-26T15:54:52.118Z,25.50
2018-11-26T15:57:31.114Z,25.32
2018-11-26T16:00:12.810Z,24.15
2018-11-26T16:02:51.642Z,25.02
2018-11-26T16:05:31.638Z,26.77
2018-11-26T16:08:13.047Z,26.10
2018-11-26T16:10:51.511Z,25.90
2018-11-26T16:13:30.943Z,27.15
2018-11-26T16:16:09.989Z,25.40
2018-11-26T16:18:50.276Z,26.33
2018-11-26T16:21:29.585Z,24.37
2018-11-26T16:24:09.164Z,23.98
2018-11-26T16:26:46.924Z,26.93
2018-11-26T16:29:25.867Z,22.02
2018-11-26T16:32:06.487Z,23.47
2018-11-26T16:34:45.376Z,25.97
2018-11-26T16:37:24.964Z,21.62
2018-11-26T16:40:04.058Z,21.37
2018-11-26T16:42:43.175Z,22.52
2018-11-26T16:45:28.841Z,22.75
2018-11-26T16:48:08.882Z,25.85
2018-11-26T16:50:49.647Z,27.55
2018-11-26T16:53:28.111Z,26.12
2018-11-26T16:56:09.431Z,28.25
2018-11-26T16:58:49.174Z,24.60
2018-11-26T17:01:28.989Z,26.57
2018-11-26T17:04:08.776Z,25.17
2018-11-26T17:06:49.592Z,28.10
2018-11-26T17:09:28.084Z,25.15
2018-11-26T17:12:06.549Z,24.90
2018-11-26T17:14:45.316Z,24.98
2018-11-26T17:17:22.556Z,24.02
2018-11-26T17:20:01.642Z,24.57
2018-11-26T17:22:40.615Z,26.30
2018-11-26T17:25:20.383Z,22.87
2018-11-26T17:28:00.820Z,24.02
2018-11-26T17:30:39.911Z,26.60
2018-11-26T17:33:19.658Z,24.25
2018-11-26T17:36:00.251Z,23.98
2018-11-26T17:38:39.764Z,23.77
2018-11-26T17:41:19.682Z,24.12
2018-11-26T17:43:58.795Z,26.07
2018-11-26T17:46:38.810Z,24.35
2018-11-26T17:49:18.927Z,25.60
2018-11-26T17:51:57.204Z,26.42
2018-11-26T17:54:38.608Z,24.70
2018-11-26T17:57:17.652Z,24.43
2018-11-26T17:59:56.691Z,24.27
2018-11-26T18:02:35.881Z,23.42
2018-11-26T18:05:18.023Z,25.12
2018-11-26T18:07:56.563Z,24.75
2018-11-26T18:10:35.331Z,24.75
2018-11-26T18:13:13.670Z,23.90
2018-11-26T18:15:53.182Z,24.55
2018-11-26T18:18:33.105Z,22.48
2018-11-26T18:21:11.520Z,23.00
2018-11-26T18:23:50.587Z,23.42
2018-11-26T18:26:31.640Z,24.27
2018-11-26T18:29:11.590Z,26.15
2018-11-26T18:31:50.237Z,23.12
2018-11-26T18:34:30.226Z,24.02
2018-11-26T18:37:10.916Z,21.30
2018-11-26T18:39:49.935Z,24.37
2018-11-26T18:42:28.004Z,24.30
2018-11-26T18:45:09.018Z,23.80
2018-11-26T18:47:46.783Z,24.25
2018-11-26T18:50:27.023Z,23.83
2018-11-26T18:53:06.107Z,21.27
2018-11-26T18:55:46.314Z,23.60
2018-11-26T18:58:25.216Z,24.45
2018-11-26T19:01:08.037Z,25.48
2018-11-26T19:03:48.783Z,22.50
2018-11-26T19:06:29.401Z,24.10
2018-11-26T19:09:10.035Z,23.73
2018-11-26T19:11:51.639Z,24.35
2018-11-26T19:14:31.225Z,25.30
2018-11-26T19:17:11.639Z,25.82
2018-11-26T19:19:50.353Z,25.00
2018-11-26T19:22:30.393Z,25.82
2018-11-26T19:25:08.732Z,23.18
2018-11-26T19:27:48.698Z,23.87
2018-11-26T19:30:27.197Z,24.15
2018-11-26T19:33:08.706Z,22.60
2018-11-26T19:35:48.614Z,24.75
2018-11-26T19:38:28.141Z,24.15
2018-11-26T19:41:06.606Z,21.62
2018-11-26T19:43:47.348Z,23.38
2018-11-26T19:46:27.564Z,24.05
2018-11-26T19:49:08.053Z,26.37
2018-11-26T19:51:46.445Z,23.45
2018-11-26T19:54:26.310Z,23.55
2018-11-26T19:57:05.403Z,24.20
2018-11-26T19:59:46.844Z,24.05
2018-11-26T20:02:26.361Z,24.52
2018-11-26T20:05:08.973Z,25.92
2018-11-26T20:07:47.312Z,24.95
2018-11-26T20:10:26.833Z,25.68
2018-11-26T20:13:05.747Z,24.55
2018-11-26T20:15:45.585Z,24.63
2018-11-26T20:18:28.464Z,23.90
2018-11-26T20:21:06.271Z,26.48
2018-11-26T20:23:46.637Z,24.52
2018-11-26T20:26:27.732Z,24.92
2018-11-26T20:29:08.470Z,28.45
2018-11-26T20:31:47.561Z,24.57
2018-11-26T20:34:28.405Z,25.17
2018-11-26T20:37:07.493Z,23.95
2018-11-26T20:39:49.722Z,24.85
2018-11-26T20:42:29.026Z,24.75
2018-11-26T20:45:08.320Z,25.52
2018-11-26T20:47:48.812Z,23.98
2018-11-26T20:50:28.876Z,24.07
2018-11-26T20:53:09.668Z,25.05
2018-11-26T20:55:48.107Z,25.35
2018-11-26T20:58:28.950Z,24.15
2018-11-26T21:01:07.743Z,23.42
2018-11-26T21:03:46.741Z,23.80
2018-11-26T21:06:25.648Z,25.05
2018-11-26T21:09:05.187Z,21.62
2018-11-26T21:11:43.457Z,22.20
2018-11-26T21:14:23.449Z,23.42
2018-11-26T21:17:03.411Z,22.20
2018-11-26T21:19:41.645Z,23.87
2018-11-26T21:22:20.922Z,21.52
2018-11-26T21:24:59.088Z,21.48
2018-11-26T21:27:38.206Z,21.90
2018-11-26T21:30:18.493Z,21.02
2018-11-26T21:32:59.366Z,22.10
2018-11-26T21:35:40.665Z,21.55
2018-11-26T21:38:21.645Z,23.27
2018-11-26T21:41:00.361Z,23.60
2018-11-26T21:43:38.501Z,21.62
2018-11-26T21:46:18.768Z,21.77
2018-11-26T21:48:57.755Z,23.00
2018-11-26T21:51:37.920Z,23.65
2018-11-26T21:54:19.190Z,24.60
2018-11-26T21:56:59.533Z,25.48
2018-11-26T21:59:38.519Z,26.45
2018-11-26T22:02:18.117Z,26.20
2018-11-26T22:04:57.528Z,28.35
2018-11-26T22:07:38.425Z,26.52
2018-11-26T22:10:19.286Z,27.77
2018-11-26T22:13:01.279Z,25.75
2018-11-26T22:15:40.317Z,25.72
2018-11-26T22:18:19.232Z,29.02
2018-11-26T22:20:58.177Z,26.90
2018-11-26T22:23:36.424Z,26.95
2018-11-26T22:26:16.536Z,26.60
2018-11-26T22:28:56.681Z,26.95
2018-11-26T22:31:35.365Z,27.05
2018-11-26T22:34:14.087Z,27.27
2018-11-26T22:36:54.095Z,27.73
2018-11-26T22:39:33.438Z,26.97
2018-11-26T22:42:11.652Z,27.10
2018-11-26T22:44:51.654Z,28.77
2018-11-26T22:47:31.654Z,27.40
2018-11-26T22:50:12.982Z,28.65
2018-11-26T22:52:51.654Z,28.60
2018-11-26T22:55:31.410Z,26.68
2018-11-26T22:58:10.629Z,27.90
2018-11-26T23:00:54.197Z,29.35
2018-11-26T23:03:36.482Z,28.92
2018-11-26T23:06:15.348Z,26.85
2018-11-26T23:08:53.843Z,28.30
2018-11-26T23:11:34.034Z,30.12
2018-11-26T23:14:12.872Z,28.95
2018-11-26T23:16:51.662Z,29.80
2018-11-26T23:19:31.656Z,30.70
2018-11-26T23:22:11.660Z,30.20
2018-11-26T23:24:51.660Z,30.32
2018-11-26T23:27:30.634Z,31.33
2018-11-26T23:30:11.659Z,29.67
2018-11-26T23:32:49.563Z,31.00
2018-11-26T23:35:30.332Z,30.08
2018-11-26T23:38:09.274Z,27.70
2018-11-26T23:40:50.162Z,28.52
2018-11-26T23:43:28.452Z,31.02
2018-11-26T23:46:08.469Z,29.95
2018-11-26T23:48:50.286Z,27.87
2018-11-26T23:51:30.473Z,29.90
2018-11-26T23:54:09.966Z,31.75
2018-11-26T23:56:49.284Z,28.73
2018-11-26T23:59:29.401Z,29.35
